Time;durP1;ratioP1;P1;durP2;ratioP2;P2;SDS_P1;SDS_P2;PMS_P1;PMS_P2;Temp;Humidity;BMP_temperature;BMP_pressure;BME280_temperature;BME280_humidity;BME280_pressure;Samples;Min_cycle;Max_cycle;Signal;HPM_P1;HPM_P2
2023/08/08 00:00:17;;;;;;;4.60;2.20;;;;;;;16.40;100.00;101388.69;5240114;28;20026;-76
2023/08/08 00:02:48;;;;;;;8.63;2.43;;;;;;;16.47;100.00;101375.84;5216120;28;20481;-76
2023/08/08 00:05:19;;;;;;;6.87;2.90;;;;;;;16.48;100.00;101382.84;5225626;28;20025;-76
2023/08/08 00:07:51;;;;;;;5.23;2.33;;;;;;;16.47;100.00;101381.13;5237497;28;20029;-76
2023/08/08 00:10:22;;;;;;;5.13;2.20;;;;;;;16.33;100.00;101380.38;5219860;28;20128;-77
2023/08/08 00:12:53;;;;;;;4.67;2.37;;;;;;;16.34;100.00;101382.06;5218420;28;20038;-77
2023/08/08 00:15:25;;;;;;;3.87;2.00;;;;;;;16.29;100.00;101381.56;5215784;28;20034;-75
2023/08/08 00:17:56;;;;;;;6.10;2.10;;;;;;;16.26;100.00;101389.75;5236093;28;20095;-76
2023/08/08 00:20:27;;;;;;;4.47;2.40;;;;;;;16.21;100.00;101377.69;5224222;28;20065;-77
2023/08/08 00:22:59;;;;;;;4.83;2.93;;;;;;;16.33;100.00;101377.75;5242321;28;20039;-76
2023/08/08 00:25:30;;;;;;;4.60;2.10;;;;;;;16.29;100.00;101382.41;5240757;28;20579;-74
2023/08/08 00:28:02;;;;;;;6.20;2.30;;;;;;;16.28;100.00;101371.97;5234232;28;20042;-77
2023/08/08 00:30:33;;;;;;;5.67;2.40;;;;;;;16.29;100.00;101385.06;5230474;28;20034;-76
2023/08/08 00:33:04;;;;;;;3.37;1.93;;;;;;;16.34;100.00;101379.41;5245885;28;20033;-77
2023/08/08 00:35:36;;;;;;;5.60;2.20;;;;;;;16.38;100.00;101386.16;5227981;28;20520;-76
2023/08/08 00:38:07;;;;;;;4.00;2.20;;;;;;;16.31;100.00;101366.44;5236048;28;20090;-76
2023/08/08 00:40:38;;;;;;;7.87;2.53;;;;;;;16.35;100.00;101367.91;5221462;28;20030;-77
2023/08/08 00:43:10;;;;;;;6.80;2.77;;;;;;;16.24;100.00;101370.50;5235620;28;20064;-77
2023/08/08 00:45:44;;;;;;;5.07;2.50;;;;;;;16.24;100.00;101368.72;5235542;28;20029;-79
2023/08/08 00:48:15;;;;;;;9.77;3.03;;;;;;;16.13;100.00;101358.94;5246563;28;20439;-81
2023/08/08 00:50:49;;;;;;;5.97;2.40;;;;;;;16.16;100.00;101368.47;5240843;28;20030;-77
2023/08/08 00:53:22;;;;;;;4.38;2.13;;;;;;;16.18;100.00;101354.16;5219325;28;20044;-76
2023/08/08 00:55:54;;;;;;;5.57;2.27;;;;;;;16.19;100.00;101357.66;5214857;28;20037;-77
2023/08/08 00:58:26;;;;;;;6.73;2.67;;;;;;;16.20;100.00;101356.69;5214287;28;20034;-77
2023/08/08 01:00:59;;;;;;;8.83;2.77;;;;;;;16.12;100.00;101352.00;5235396;28;20116;-76
2023/08/08 01:03:31;;;;;;;5.70;2.00;;;;;;;16.25;100.00;101356.34;5234779;28;20100;-76
2023/08/08 01:06:11;;;;;;;6.03;2.67;;;;;;;16.28;100.00;101374.63;5234378;28;20041;-75
2023/08/08 01:08:50;;;;;;;6.63;2.77;;;;;;;16.23;100.00;101368.84;5234373;28;20033;-75
2023/08/08 01:11:23;;;;;;;10.43;2.57;;;;;;;16.15;100.00;101372.91;5271197;23;20941;-75
2023/08/08 01:13:55;;;;;;;6.70;2.80;;;;;;;16.19;100.00;101374.34;5242013;28;20041;-76
2023/08/08 01:16:27;;;;;;;6.70;2.67;;;;;;;16.17;100.00;101365.69;5233462;28;20025;-77
2023/08/08 01:18:59;;;;;;;7.17;2.77;;;;;;;16.17;100.00;101360.41;5235244;28;20040;-76
2023/08/08 01:21:36;;;;;;;8.37;2.70;;;;;;;16.29;100.00;101358.63;5234845;28;20032;-76
2023/08/08 01:24:13;;;;;;;12.90;4.30;;;;;;;16.36;100.00;101359.00;5237629;28;20068;-75
2023/08/08 01:26:46;;;;;;;4.43;2.37;;;;;;;16.19;100.00;101355.88;5235229;28;20384;-77
2023/08/08 01:29:18;;;;;;;8.13;2.83;;;;;;;16.11;100.00;101355.56;5234965;28;20487;-76
2023/08/08 01:31:49;;;;;;;7.93;2.63;;;;;;;16.12;100.00;101353.78;5233821;28;20091;-76
2023/08/08 01:34:21;;;;;;;7.93;2.27;;;;;;;16.27;100.00;101370.28;5229822;28;20069;-77
2023/08/08 01:37:02;;;;;;;7.33;2.67;;;;;;;16.39;100.00;101368.53;5233892;28;20032;-76
2023/08/08 01:39:35;;;;;;;8.70;3.53;;;;;;;16.25;100.00;101359.00;5231089;28;20036;-77
2023/08/08 01:42:07;;;;;;;5.00;2.50;;;;;;;16.20;100.00;101359.31;5222658;28;20021;-76
2023/08/08 01:44:41;;;;;;;8.37;3.13;;;;;;;16.28;100.00;101361.41;5224149;28;20031;-77
2023/08/08 01:47:12;;;;;;;6.82;2.22;;;;;;;16.13;100.00;101337.81;5219983;28;20041;-76
2023/08/08 01:49:44;;;;;;;9.30;2.90;;;;;;;16.20;100.00;101349.59;5220610;28;20472;-75
2023/08/08 01:52:15;;;;;;;7.27;2.70;;;;;;;16.21;100.00;101340.72;5249062;28;20106;-76
2023/08/08 01:54:46;;;;;;;8.80;3.23;;;;;;;16.26;100.00;101343.03;5218573;28;20104;-77
2023/08/08 01:57:18;;;;;;;9.73;3.27;;;;;;;16.16;100.00;101347.31;5234862;28;20036;-77
2023/08/08 01:59:49;;;;;;;6.53;2.20;;;;;;;16.10;100.00;101343.34;5230964;28;20076;-74
2023/08/08 02:02:21;;;;;;;7.37;2.93;;;;;;;16.14;100.00;101338.66;5226079;28;20274;-76
2023/08/08 02:04:52;;;;;;;8.33;3.60;;;;;;;16.06;100.00;101331.31;5234293;28;20061;-76
2023/08/08 02:07:23;;;;;;;11.07;3.47;;;;;;;16.06;100.00;101336.59;5230673;28;20064;-76
2023/08/08 02:09:55;;;;;;;6.30;2.67;;;;;;;15.97;100.00;101332.81;5231974;28;20017;-76
2023/08/08 02:12:28;;;;;;;7.70;2.87;;;;;;;15.95;100.00;101329.47;5233476;28;20045;-76
2023/08/08 02:14:59;;;;;;;11.93;3.13;;;;;;;15.97;100.00;101331.03;5233925;28;20021;-76
2023/08/08 02:17:31;;;;;;;8.47;3.50;;;;;;;15.80;100.00;101321.72;5232119;28;20298;-77
2023/08/08 02:20:03;;;;;;;6.30;3.17;;;;;;;15.91;100.00;101339.41;5227322;28;20055;-76
2023/08/08 02:22:34;;;;;;;9.57;3.10;;;;;;;15.77;100.00;101318.47;5234028;28;20068;-75
2023/08/08 02:25:06;;;;;;;8.73;3.20;;;;;;;15.89;100.00;101324.63;5232586;28;20034;-76
2023/08/08 02:27:37;;;;;;;10.87;3.30;;;;;;;15.78;100.00;101328.09;5234062;28;20021;-76
2023/08/08 02:30:09;;;;;;;10.70;3.83;;;;;;;15.69;100.00;101322.50;5232471;28;20112;-77
2023/08/08 02:32:41;;;;;;;9.17;3.43;;;;;;;15.80;100.00;101321.72;5248209;28;20124;-77
2023/08/08 02:35:12;;;;;;;11.17;3.30;;;;;;;15.78;100.00;101320.16;5238080;28;20112;-78
2023/08/08 02:37:43;;;;;;;8.03;3.23;;;;;;;15.80;100.00;101313.81;5253373;28;20033;-75
2023/08/08 02:40:14;;;;;;;10.10;3.87;;;;;;;15.78;100.00;101306.97;5244788;28;20808;-76
2023/08/08 02:42:46;;;;;;;8.47;3.03;;;;;;;15.77;100.00;101311.41;5236321;28;20037;-77
2023/08/08 02:45:17;;;;;;;11.87;4.37;;;;;;;15.78;100.00;101304.31;5238280;28;20025;-77
2023/08/08 02:47:48;;;;;;;9.17;3.67;;;;;;;15.81;100.00;101298.81;5238618;28;20030;-76
2023/08/08 02:50:20;;;;;;;7.90;3.20;;;;;;;15.80;100.00;101292.69;5236603;28;20112;-76
2023/08/08 02:52:51;;;;;;;10.57;3.37;;;;;;;15.79;100.00;101298.06;5249147;28;20047;-76
2023/08/08 02:55:23;;;;;;;15.90;3.53;;;;;;;15.85;100.00;101298.44;5241631;28;20029;-76
2023/08/08 02:57:54;;;;;;;7.90;4.20;;;;;;;15.90;100.00;101292.00;5238078;28;20041;-77
2023/08/08 03:00:25;;;;;;;11.10;4.93;;;;;;;15.78;100.00;101293.75;5245351;28;20486;-74
2023/08/08 03:02:57;;;;;;;6.37;3.10;;;;;;;15.68;100.00;101286.53;5257758;28;20029;-76
2023/08/08 03:05:28;;;;;;;11.43;3.60;;;;;;;15.75;100.00;101292.19;5242999;28;20029;-77
2023/08/08 03:07:59;;;;;;;12.67;3.67;;;;;;;15.71;100.00;101296.84;5236401;28;20107;-77
2023/08/08 03:10:31;;;;;;;9.40;3.90;;;;;;;15.68;100.00;101302.38;5237557;28;20462;-75
2023/08/08 03:13:02;;;;;;;10.60;3.83;;;;;;;15.71;100.00;101302.13;5237569;28;20049;-76
2023/08/08 03:15:33;;;;;;;9.43;4.00;;;;;;;15.68;100.00;101291.81;5237566;28;20045;-76
2023/08/08 03:18:05;;;;;;;12.73;4.10;;;;;;;15.68;100.00;101301.50;5236957;28;20049;-77
2023/08/08 03:20:36;;;;;;;13.87;4.93;;;;;;;15.68;100.00;101299.72;5237661;28;20065;-74
2023/08/08 03:23:07;;;;;;;12.93;3.60;;;;;;;15.69;100.00;101296.13;5236138;28;20029;-78
2023/08/08 03:25:39;;;;;;;13.57;4.23;;;;;;;15.67;100.00;101284.84;5237200;28;20033;-76
2023/08/08 03:28:10;;;;;;;14.50;4.67;;;;;;;15.60;100.00;101294.19;5237049;28;20029;-77
2023/08/08 03:30:41;;;;;;;12.47;4.17;;;;;;;15.81;100.00;101286.41;5237712;28;20060;-76
2023/08/08 03:33:13;;;;;;;11.80;4.43;;;;;;;15.66;100.00;101290.22;5237145;28;20075;-76
2023/08/08 03:35:44;;;;;;;9.63;4.13;;;;;;;15.75;100.00;101286.91;5236943;28;20041;-76
2023/08/08 03:38:15;;;;;;;11.33;4.30;;;;;;;15.74;100.00;101290.50;5236286;28;20120;-77
2023/08/08 03:40:47;;;;;;;12.10;4.60;;;;;;;15.72;100.00;101285.34;5237522;28;20030;-76
2023/08/08 03:43:18;;;;;;;9.57;4.00;;;;;;;15.75;100.00;101289.53;5236589;28;20021;-76
2023/08/08 03:45:50;;;;;;;10.67;3.90;;;;;;;15.64;100.00;101287.69;5235716;28;20033;-78
2023/08/08 03:48:21;;;;;;;11.83;5.00;;;;;;;15.75;100.00;101288.69;5236748;28;20053;-78
2023/08/08 03:50:52;;;;;;;11.40;3.90;;;;;;;15.71;100.00;101288.06;5235387;28;20916;-75
2023/08/08 03:53:24;;;;;;;10.70;4.40;;;;;;;15.65;100.00;101289.41;5234581;28;20079;-77
2023/08/08 03:55:55;;;;;;;12.73;5.03;;;;;;;15.60;100.00;101279.16;5236358;28;20033;-74
2023/08/08 03:58:26;;;;;;;10.97;4.93;;;;;;;15.59;100.00;101284.56;5236461;28;20033;-76
2023/08/08 04:00:58;;;;;;;16.73;5.10;;;;;;;15.46;100.00;101277.53;5229406;28;20030;-78
2023/08/08 04:03:29;;;;;;;12.73;5.17;;;;;;;15.50;100.00;101287.91;5235629;28;20052;-78
2023/08/08 04:06:00;;;;;;;12.63;4.97;;;;;;;15.52;100.00;101285.97;5233154;28;20476;-76
2023/08/08 04:08:32;;;;;;;11.23;5.03;;;;;;;15.45;100.00;101281.16;5235632;28;20163;-77
2023/08/08 04:11:03;;;;;;;9.20;4.27;;;;;;;15.36;100.00;101273.91;5236059;28;20112;-77
2023/08/08 04:13:34;;;;;;;9.43;4.77;;;;;;;15.47;100.00;101279.25;5237042;28;20029;-78
2023/08/08 04:16:06;;;;;;;16.10;4.93;;;;;;;15.44;100.00;101279.47;5235528;28;20041;-78
2023/08/08 04:18:37;;;;;;;12.47;4.87;;;;;;;15.43;100.00;101283.06;5236131;28;20541;-78
2023/08/08 04:21:09;;;;;;;14.03;5.07;;;;;;;15.38;100.00;101279.91;5236053;28;20044;-78
2023/08/08 04:23:40;;;;;;;11.47;4.73;;;;;;;15.37;100.00;101288.78;5235494;28;20045;-77
2023/08/08 04:26:12;;;;;;;10.87;5.07;;;;;;;15.40;100.00;101287.72;5217863;28;20039;-78
2023/08/08 04:28:43;;;;;;;11.57;5.43;;;;;;;15.26;100.00;101280.81;5245626;28;20044;-77
2023/08/08 04:31:15;;;;;;;11.67;4.20;;;;;;;15.28;100.00;101276.25;5238381;28;20098;-78
2023/08/08 04:33:46;;;;;;;10.67;4.47;;;;;;;15.34;100.00;101279.28;5256913;28;20025;-78
2023/08/08 04:36:17;;;;;;;13.87;5.50;;;;;;;15.31;100.00;101279.53;5257307;28;20040;-77
2023/08/08 04:38:49;;;;;;;14.60;5.47;;;;;;;15.31;100.00;101276.88;5254442;28;20387;-77
2023/08/08 04:41:20;;;;;;;11.37;4.23;;;;;;;15.28;100.00;101286.81;5255474;28;20033;-76
2023/08/08 04:43:51;;;;;;;14.57;5.87;;;;;;;15.27;100.00;101293.06;5241305;28;20021;-77
2023/08/08 04:46:23;;;;;;;13.17;4.97;;;;;;;15.28;100.00;101284.19;5256468;28;20049;-77
2023/08/08 04:48:54;;;;;;;17.30;5.43;;;;;;;15.20;100.00;101275.03;5243768;28;20496;-77
2023/08/08 04:51:25;;;;;;;17.80;6.17;;;;;;;15.19;100.00;101281.25;5234082;28;20910;-77
2023/08/08 04:53:57;;;;;;;13.03;5.23;;;;;;;15.13;100.00;101281.72;5234450;28;20034;-77
2023/08/08 04:56:28;;;;;;;15.80;5.43;;;;;;;15.10;100.00;101285.41;5235618;28;20029;-77
2023/08/08 04:58:59;;;;;;;14.17;5.80;;;;;;;15.22;100.00;101288.94;5235389;28;20159;-77
2023/08/08 05:01:30;;;;;;;12.97;6.30;;;;;;;15.31;100.00;101289.22;5242458;28;20024;-75
2023/08/08 05:04:02;;;;;;;10.43;4.77;;;;;;;15.21;100.00;101287.28;5256119;28;20147;-77
2023/08/08 05:06:33;;;;;;;18.43;5.47;;;;;;;15.27;100.00;101288.63;5239849;28;20548;-77
2023/08/08 05:09:04;;;;;;;12.23;4.70;;;;;;;15.19;100.00;101281.25;5234546;28;20112;-77
2023/08/08 05:11:36;;;;;;;16.80;5.77;;;;;;;15.19;100.00;101285.69;5235036;28;20492;-77
2023/08/08 05:14:07;;;;;;;15.30;6.17;;;;;;;15.12;100.00;101282.66;5234777;28;20025;-75
2023/08/08 05:16:39;;;;;;;17.43;7.00;;;;;;;15.17;100.00;101282.34;5234108;28;20504;-77
2023/08/08 05:19:10;;;;;;;12.13;6.17;;;;;;;15.22;100.00;101285.50;5253102;28;20025;-77
2023/08/08 05:21:42;;;;;;;14.23;5.40;;;;;;;15.14;100.00;101280.75;5255676;28;20029;-77
2023/08/08 05:24:14;;;;;;;18.53;5.27;;;;;;;15.12;100.00;101274.75;5255224;28;20399;-77
2023/08/08 05:26:45;;;;;;;20.63;6.43;;;;;;;15.14;100.00;101279.91;5255986;28;20036;-77
2023/08/08 05:29:16;;;;;;;18.10;6.23;;;;;;;15.08;100.00;101279.41;5255286;28;20455;-75
2023/08/08 05:31:48;;;;;;;14.90;6.13;;;;;;;15.02;100.00;101273.72;5256236;28;20025;-77
2023/08/08 05:34:19;;;;;;;14.17;5.23;;;;;;;15.14;100.00;101286.03;5254025;28;20021;-77
2023/08/08 05:36:50;;;;;;;12.90;5.40;;;;;;;14.97;100.00;101287.25;5256296;28;20021;-77
2023/08/08 05:39:22;;;;;;;15.43;5.40;;;;;;;15.11;100.00;101283.63;5253003;28;20499;-77
2023/08/08 05:41:53;;;;;;;21.13;6.80;;;;;;;15.12;100.00;101283.50;5255673;28;20029;-78
2023/08/08 05:44:24;;;;;;;18.90;6.03;;;;;;;15.21;100.00;101289.06;5255509;28;20056;-78
2023/08/08 05:46:56;;;;;;;17.27;6.60;;;;;;;15.21;100.00;101289.06;5253737;28;20074;-78
2023/08/08 05:49:27;;;;;;;17.13;5.83;;;;;;;15.22;100.00;101294.22;5254789;28;20060;-78
2023/08/08 05:51:58;;;;;;;14.60;5.37;;;;;;;15.27;100.00;101291.28;5255732;28;20025;-76
2023/08/08 05:54:30;;;;;;;13.93;5.70;;;;;;;15.32;100.00;101294.41;5237195;28;20021;-77
2023/08/08 05:57:02;;;;;;;12.20;5.60;;;;;;;15.36;100.00;101279.19;5234186;28;20431;-81
2023/08/08 05:59:33;;;;;;;15.53;6.13;;;;;;;15.37;100.00;101283.53;5234744;28;20036;-83
2023/08/08 06:02:05;;;;;;;14.27;5.50;;;;;;;15.40;100.00;101301.75;5234129;28;20029;-83
2023/08/08 06:04:37;;;;;;;13.87;5.97;;;;;;;15.42;100.00;101286.66;5234967;28;20035;-80
2023/08/08 06:07:08;;;;;;;9.43;4.63;;;;;;;15.48;100.00;101282.72;5234545;28;20156;-82
2023/08/08 06:09:40;;;;;;;14.90;5.77;;;;;;;15.54;100.00;101294.63;5215800;28;20042;-82
2023/08/08 06:12:11;;;;;;;11.27;4.80;;;;;;;15.52;100.00;101286.81;5235009;28;20102;-83
2023/08/08 06:14:42;;;;;;;13.57;6.33;;;;;;;15.61;100.00;101290.56;5233035;28;20033;-80
2023/08/08 06:17:14;;;;;;;14.63;5.73;;;;;;;15.52;100.00;101284.16;5237610;28;20384;-76
2023/08/08 06:19:45;;;;;;;18.93;6.23;;;;;;;15.62;100.00;101286.13;5226733;28;20040;-83
2023/08/08 06:22:17;;;;;;;12.13;6.93;;;;;;;15.71;100.00;101290.72;5238980;28;20104;-82
2023/08/08 06:24:48;;;;;;;22.50;5.53;;;;;;;15.77;100.00;101299.97;5238098;28;20093;-80
2023/08/08 06:27:19;;;;;;;14.77;4.53;;;;;;;15.80;100.00;101289.19;5238891;28;20040;-77
2023/08/08 06:29:51;;;;;;;14.97;5.60;;;;;;;15.81;100.00;101296.16;5257708;28;20056;-82
2023/08/08 06:32:22;;;;;;;16.50;6.27;;;;;;;15.87;100.00;101306.25;5221601;28;20033;-83
2023/08/08 06:34:55;;;;;;;19.97;5.17;;;;;;;15.87;100.00;101300.97;5217538;28;20095;-80
2023/08/08 06:37:26;;;;;;;12.60;4.77;;;;;;;15.99;100.00;101301.03;5226393;28;20021;-82
2023/08/08 06:39:57;;;;;;;12.40;5.07;;;;;;;16.09;100.00;101312.59;5238776;28;20488;-82
2023/08/08 06:42:28;;;;;;;14.37;5.17;;;;;;;16.09;100.00;101294.09;5227406;28;20130;-81
2023/08/08 06:45:00;;;;;;;11.37;4.57;;;;;;;16.12;100.00;101293.88;5238192;28;20034;-75
2023/08/08 06:47:31;;;;;;;12.67;4.70;;;;;;;16.25;100.00;101303.50;5236755;28;20025;-75
2023/08/08 06:50:03;;;;;;;12.13;4.77;;;;;;;16.35;100.00;101301.81;5238512;28;20036;-81
2023/08/08 06:52:35;;;;;;;11.47;4.43;;;;;;;16.41;100.00;101282.00;5217091;28;20096;-81
2023/08/08 06:55:06;;;;;;;12.37;4.80;;;;;;;16.52;100.00;101297.00;5217663;28;20022;-82
2023/08/08 06:57:38;;;;;;;15.73;4.20;;;;;;;16.61;100.00;101309.53;5233276;28;20123;-79
2023/08/08 07:00:13;;;;;;;14.67;5.10;;;;;;;16.71;100.00;101301.69;5247377;28;20030;-82
2023/08/08 07:02:44;;;;;;;14.27;4.40;;;;;;;16.74;100.00;101292.69;5244939;28;20129;-81
2023/08/08 07:05:16;;;;;;;8.87;4.13;;;;;;;16.85;100.00;101305.03;5231842;28;20049;-82
2023/08/08 07:07:50;;;;;;;11.90;3.93;;;;;;;17.00;100.00;101305.66;5217089;28;20057;-80
2023/08/08 07:10:21;;;;;;;14.10;4.00;;;;;;;17.11;100.00;101303.00;5226034;28;20048;-76
2023/08/08 07:12:52;;;;;;;10.97;4.30;;;;;;;17.29;100.00;101307.75;5237841;28;20046;-80
2023/08/08 07:15:24;;;;;;;11.93;3.90;;;;;;;17.28;100.00;101308.72;5237775;28;20038;-82
2023/08/08 07:17:55;;;;;;;13.33;3.90;;;;;;;17.44;100.00;101303.00;5238093;28;20075;-81
2023/08/08 07:20:26;;;;;;;10.63;4.20;;;;;;;17.59;100.00;101298.28;5238068;28;20033;-82
2023/08/08 07:22:59;;;;;;;11.57;4.07;;;;;;;17.63;100.00;101291.75;5236958;28;20021;-82
2023/08/08 07:25:31;;;;;;;14.17;3.90;;;;;;;17.71;100.00;101306.16;5237548;28;20100;-81
2023/08/08 07:28:02;;;;;;;17.63;3.90;;;;;;;17.68;100.00;101309.06;5237001;28;20112;-81
2023/08/08 07:30:34;;;;;;;10.23;4.50;;;;;;;17.75;100.00;101297.00;5238188;28;20508;-81
2023/08/08 07:33:05;;;;;;;9.33;3.70;;;;;;;17.82;100.00;101292.84;5237675;28;20079;-75
2023/08/08 07:35:36;;;;;;;10.03;3.73;;;;;;;17.92;100.00;101289.44;5236952;28;20136;-77
2023/08/08 07:38:08;;;;;;;12.30;4.37;;;;;;;18.06;100.00;101305.00;5236268;28;20035;-76
2023/08/08 07:40:41;;;;;;;10.83;4.57;;;;;;;18.22;100.00;101301.91;5237425;28;20052;-77
2023/08/08 07:43:12;;;;;;;14.53;4.83;;;;;;;18.36;100.00;101286.66;5236586;28;20036;-77
2023/08/08 07:45:43;;;;;;;10.73;3.87;;;;;;;18.68;100.00;101295.38;5232627;28;20025;-73
2023/08/08 07:48:15;;;;;;;7.83;3.97;;;;;;;18.96;100.00;101296.47;5247892;28;20119;-73
2023/08/08 07:50:46;;;;;;;8.47;3.43;;;;;;;19.06;100.00;101290.34;5257350;28;20091;-73
2023/08/08 07:53:18;;;;;;;6.23;3.10;;;;;;;19.23;100.00;101300.28;5237334;28;20029;-74
2023/08/08 07:55:49;;;;;;;6.80;3.00;;;;;;;19.47;100.00;101300.88;5230435;28;20105;-75
2023/08/08 07:58:23;;;;;;;6.93;2.57;;;;;;;19.48;100.00;101297.22;5236062;28;20068;-74
2023/08/08 08:00:54;;;;;;;6.63;2.80;;;;;;;19.48;100.00;101302.53;5246907;28;20483;-74
2023/08/08 08:03:27;;;;;;;8.73;3.10;;;;;;;19.46;100.00;101308.00;5255587;28;20029;-74
2023/08/08 08:05:58;;;;;;;10.23;3.40;;;;;;;19.47;100.00;101308.84;5239511;28;20060;-74
2023/08/08 08:08:29;;;;;;;9.57;3.37;;;;;;;19.71;100.00;101304.91;5235078;28;20092;-74
2023/08/08 08:11:04;;;;;;;9.90;2.87;;;;;;;19.93;100.00;101302.94;5245859;28;20432;-74
2023/08/08 08:13:35;;;;;;;7.20;3.30;;;;;;;19.80;100.00;101298.75;5257281;28;20102;-74
2023/08/08 08:16:06;;;;;;;7.37;3.53;;;;;;;20.10;100.00;101309.38;5238545;28;20033;-74
2023/08/08 08:18:38;;;;;;;8.53;3.10;;;;;;;20.49;100.00;101295.06;5235099;28;20029;-74
2023/08/08 08:21:09;;;;;;;8.07;3.40;;;;;;;21.12;97.31;101297.16;5235045;28;20495;-74
2023/08/08 08:23:40;;;;;;;10.33;4.17;;;;;;;21.55;92.38;101307.19;5234145;28;20468;-74
2023/08/08 08:26:12;;;;;;;5.40;2.85;;;;;;;22.08;89.68;101304.63;5235690;28;20040;-74
2023/08/08 08:28:43;;;;;;;6.75;3.35;;;;;;;22.15;86.29;101305.63;5246606;28;20188;-75
2023/08/08 08:31:14;;;;;;;9.32;2.83;;;;;;;22.14;85.79;101289.78;5235548;28;20065;-73
2023/08/08 08:33:46;;;;;;;9.00;2.85;;;;;;;21.88;81.94;101304.81;5252280;28;20032;-73
2023/08/08 08:36:17;;;;;;;11.43;3.20;;;;;;;21.70;83.75;101286.16;5251588;28;20017;-73
2023/08/08 08:38:48;;;;;;;9.32;3.33;;;;;;;21.46;84.42;101298.28;5235506;28;20033;-73
2023/08/08 08:41:25;;;;;;;6.55;2.45;;;;;;;21.57;80.79;101299.88;5235308;28;20044;-73
2023/08/08 08:43:56;;;;;;;6.00;2.53;;;;;;;21.20;79.08;101299.91;5233497;28;20025;-74
2023/08/08 08:46:29;;;;;;;7.93;3.07;;;;;;;21.10;81.92;101299.13;5236139;28;20040;-73
2023/08/08 08:49:02;;;;;;;8.37;2.93;;;;;;;21.24;82.12;101295.13;5255660;28;20539;-73
2023/08/08 08:51:38;;;;;;;9.70;3.30;;;;;;;21.19;81.84;101298.22;5247823;28;20021;-73
2023/08/08 08:54:10;;;;;;;8.40;2.30;;;;;;;21.22;80.80;101310.41;5233310;28;20025;-74
2023/08/08 08:56:42;;;;;;;5.67;2.53;;;;;;;21.26;80.09;101293.09;5235722;28;20031;-73
2023/08/08 08:59:13;;;;;;;9.98;3.50;;;;;;;21.10;81.12;101304.47;5235339;28;20029;-74
2023/08/08 09:01:45;;;;;;;7.57;3.03;;;;;;;21.15;79.31;101307.50;5234271;28;20037;-74
2023/08/08 09:04:18;;;;;;;7.23;2.63;;;;;;;20.99;79.24;101303.69;5239490;28;20022;-74
2023/08/08 09:06:51;;;;;;;7.65;3.10;;;;;;;20.82;80.14;101315.09;5234499;28;20033;-75
2023/08/08 09:09:22;;;;;;;6.10;2.50;;;;;;;20.66;77.16;101305.94;5234769;28;20021;-75
2023/08/08 09:11:56;;;;;;;3.93;1.80;;;;;;;20.55;78.61;101313.13;5233846;28;20037;-74
2023/08/08 09:14:28;;;;;;;6.97;2.58;;;;;;;20.61;80.92;101310.88;5231040;28;20042;-74
2023/08/08 09:16:59;;;;;;;6.30;2.53;;;;;;;20.35;79.13;101300.91;5252057;28;20076;-74
2023/08/08 09:19:30;;;;;;;8.27;2.20;;;;;;;20.32;80.77;101317.97;5235051;28;20042;-74
2023/08/08 09:22:02;;;;;;;9.57;2.50;;;;;;;20.22;84.53;101314.50;5232589;28;20025;-74
2023/08/08 09:24:38;;;;;;;9.43;2.80;;;;;;;20.12;85.09;101311.88;5234364;28;20064;-74
2023/08/08 09:27:10;;;;;;;8.50;2.50;;;;;;;20.00;83.28;101305.84;5234643;28;20025;-74
2023/08/08 09:29:41;;;;;;;7.97;2.27;;;;;;;19.83;86.21;101313.56;5233943;28;20514;-74
2023/08/08 09:32:14;;;;;;;5.60;1.90;;;;;;;19.99;83.93;101296.19;5234275;28;20033;-75
2023/08/08 09:34:46;;;;;;;9.87;2.93;;;;;;;20.10;83.25;101322.66;5220906;28;20424;-76
2023/08/08 09:37:18;;;;;;;8.97;2.90;;;;;;;20.26;83.12;101313.25;5215909;28;20021;-79
2023/08/08 09:40:03;;;;;;;6.67;2.47;;;;;;;20.62;84.30;101309.88;5234201;28;20033;-76
2023/08/08 09:42:35;;;;;;;12.77;2.83;;;;;;;20.77;80.65;101319.03;5234648;28;20166;-76
2023/08/08 09:45:08;;;;;;;6.77;3.83;;;;;;;20.96;79.85;101319.97;5234395;28;20057;-76
2023/08/08 09:47:40;;;;;;;7.00;3.45;;;;;;;20.97;77.33;101310.97;5233573;28;20033;-74
2023/08/08 09:50:12;;;;;;;8.63;2.80;;;;;;;20.99;75.11;101314.34;5240180;28;20025;-81
2023/08/08 09:52:46;;;;;;;8.30;2.90;;;;;;;21.27;77.39;101316.97;5232768;28;20033;-80
2023/08/08 09:55:18;;;;;;;5.65;2.25;;;;;;;21.56;74.32;101306.19;5234523;28;20032;-80
2023/08/08 09:57:52;;;;;;;8.53;2.87;;;;;;;21.66;70.84;101319.44;5234274;28;20112;-79
2023/08/08 10:00:27;;;;;;;7.53;2.42;;;;;;;21.98;70.76;101312.69;5231309;28;20034;-71
2023/08/08 10:03:00;;;;;;;6.00;2.05;;;;;;;22.40;69.50;101297.78;5239950;28;20033;-71
2023/08/08 10:05:32;;;;;;;7.95;2.45;;;;;;;22.67;65.44;101309.25;5235310;28;20484;-72
2023/08/08 10:08:03;;;;;;;5.05;2.17;;;;;;;23.09;65.05;101315.53;5232946;28;20041;-72
2023/08/08 10:10:37;;;;;;;6.70;2.15;;;;;;;23.07;59.26;101312.19;5232393;28;20029;-72
2023/08/08 10:13:08;;;;;;;7.13;2.15;;;;;;;23.17;58.53;101312.06;5233110;28;20041;-73
2023/08/08 10:15:40;;;;;;;8.13;2.15;;;;;;;23.09;58.58;101306.72;5233873;28;20481;-71
2023/08/08 10:18:13;;;;;;;4.78;1.90;;;;;;;23.69;56.50;101312.78;5232600;28;20175;-72
2023/08/08 10:20:47;;;;;;;2.53;1.30;;;;;;;24.19;53.55;101308.38;5229588;28;20025;-72
2023/08/08 10:23:19;;;;;;;6.28;1.85;;;;;;;24.72;53.98;101310.50;5221071;28;20018;-71
2023/08/08 10:25:52;;;;;;;5.38;1.75;;;;;;;24.87;51.89;101310.63;5232266;28;20481;-72
2023/08/08 10:28:25;;;;;;;7.43;2.50;;;;;;;24.50;54.42;101318.31;5227723;28;20680;-71
2023/08/08 10:30:59;;;;;;;4.95;2.10;;;;;;;24.31;49.41;101315.03;5230780;28;20498;-71
2023/08/08 10:33:41;;;;;;;6.03;2.63;;;;;;;24.38;50.91;101313.31;5226519;28;20048;-72
2023/08/08 10:36:13;;;;;;;5.43;1.55;;;;;;;24.08;48.91;101318.41;5223325;28;20035;-71
2023/08/08 10:38:46;;;;;;;4.93;1.48;;;;;;;24.20;48.63;101318.06;5221044;28;20037;-70
2023/08/08 10:41:20;;;;;;;3.92;1.85;;;;;;;23.93;48.75;101327.13;5232720;28;20040;-71
2023/08/08 10:43:52;;;;;;;;;;;;;;;24.62;48.59;101308.06;5234152;28;20100;-71
2023/08/08 10:46:25;;;;;;;4.22;1.40;;;;;;;23.36;51.15;101318.09;5233159;28;20008;-70
2023/08/08 10:49:02;;;;;;;5.05;1.70;;;;;;;22.95;55.99;101324.22;5216755;28;20059;-70
2023/08/08 10:51:37;;;;;;;11.05;2.17;;;;;;;22.80;57.68;101331.97;5232202;28;20018;-70
2023/08/08 10:54:28;;;;;;;5.93;2.00;;;;;;;22.80;58.89;101330.16;5231872;28;20029;-70
2023/08/08 10:57:00;;;;;;;7.35;2.40;;;;;;;22.15;59.62;101326.97;5231546;28;20388;-70
2023/08/08 10:59:38;;;;;;;10.68;2.10;;;;;;;22.05;61.09;101318.25;5242023;28;20030;-72
2023/08/08 11:02:10;;;;;;;3.97;1.50;;;;;;;22.00;60.81;101311.56;5237864;28;20021;-73
2023/08/08 11:04:41;;;;;;;7.68;2.05;;;;;;;22.00;62.51;101305.38;5248974;28;20018;-73
2023/08/08 11:07:14;;;;;;;6.65;1.80;;;;;;;22.60;61.80;101301.00;5235748;28;20053;-73
2023/08/08 11:09:45;;;;;;;5.20;1.80;;;;;;;22.98;57.79;101297.16;5235932;28;20388;-72
2023/08/08 11:12:17;;;;;;;4.65;1.98;;;;;;;23.30;56.35;101300.06;5235476;28;20115;-72
2023/08/08 11:14:48;;;;;;;5.72;1.63;;;;;;;23.53;55.84;101294.91;5236865;28;20036;-73
2023/08/08 11:17:19;;;;;;;5.43;1.67;;;;;;;23.66;53.48;101305.09;5234811;28;20029;-75
2023/08/08 11:19:51;;;;;;;3.85;1.63;;;;;;;23.68;51.74;101284.38;5233188;28;20097;-75
2023/08/08 11:22:23;;;;;;;5.82;2.03;;;;;;;24.01;50.75;101296.88;5232933;28;20799;-73
2023/08/08 11:24:57;;;;;;;4.80;1.25;;;;;;;24.08;52.07;101293.50;5237644;28;20071;-73
2023/08/08 11:27:28;;;;;;;;;;;;;;;24.94;52.59;101292.03;5239224;28;20033;-74
2023/08/08 11:29:59;;;;;;;5.30;1.83;;;;;;;24.53;48.65;101291.19;5230756;28;19917;-74
2023/08/08 11:32:30;;;;;;;2.85;1.40;;;;;;;24.76;48.08;101293.09;5236015;28;20041;-72
2023/08/08 11:35:02;;;;;;;5.70;1.50;;;;;;;24.75;48.44;101286.06;5235351;28;20029;-74
2023/08/08 11:37:34;;;;;;;5.45;1.85;;;;;;;24.49;48.25;101284.53;5236137;28;20022;-75